Wetterdaten: Woche 17.07.17 - 23.07.17 (KW29)
Datum Zeit Temp. A. Feuchte A. Luftdruck Regen Wind Richtung Taupunkt Windchill Windben
17.07.2017 00:00 16,2 C 67 % 1021,5 hPa 0,0 l/m 0,0 km/h N 10,0 C 16,2 C 0,0 km/h
17.07.2017 01:00 15,1 C 73 % 1021,6 hPa 0,0 l/m 0,0 km/h N 10,2 C 15,1 C 0,4 km/h
17.07.2017 02:00 14,6 C 74 % 1021,4 hPa 0,0 l/m 0,0 km/h N 10,0 C 14,6 C 0,0 km/h
17.07.2017 03:00 13,8 C 77 % 1021,1 hPa 0,0 l/m 0,0 km/h N 9,7 C 13,8 C 0,0 km/h
17.07.2017 04:00 13,5 C 78 % 1021,1 hPa 0,0 l/m 0,0 km/h N 9,6 C 13,5 C 0,8 km/h
17.07.2017 05:00 13,6 C 78 % 1021,0 hPa 0,0 l/m 0,1 km/h N 9,8 C 13,6 C 3,2 km/h
17.07.2017 06:00 14,3 C 77 % 1021,1 hPa 0,0 l/m 0,0 km/h N 10,2 C 14,3 C 0,4 km/h
17.07.2017 07:00 14,9 C 79 % 1021,2 hPa 0,0 l/m 0,0 km/h N 11,2 C 14,9 C 0,0 km/h
17.07.2017 08:00 18,1 C 75 % 1021,2 hPa 0,0 l/m 0,0 km/h N 13,5 C 18,1 C 0,8 km/h
17.07.2017 09:00 23,2 C 59 % 1021,0 hPa 0,0 l/m 0,0 km/h N 14,8 C 23,2 C 2,8 km/h
17.07.2017 10:00 25,1 C 46 % 1020,7 hPa 0,0 l/m 2,0 km/h N 12,5 C 25,1 C 12,5 km/h
17.07.2017 11:00 25,7 C 44 % 1020,4 hPa 0,0 l/m 2,4 km/h N 12,5 C 25,7 C 10,5 km/h
17.07.2017 12:00 26,0 C 45 % 1020,0 hPa 0,0 l/m 2,8 km/h N 13,0 C 26,0 C 13,3 km/h
17.07.2017 13:00 26,2 C 45 % 1019,7 hPa 0,0 l/m 4,0 km/h N 13,1 C 26,2 C 16,1 km/h
17.07.2017 14:00 26,4 C 45 % 1019,4 hPa 0,0 l/m 3,0 km/h N 13,3 C 26,4 C 13,3 km/h
17.07.2017 15:00 26,9 C 44 % 1019,0 hPa 0,0 l/m 2,7 km/h N 13,7 C 26,9 C 12,5 km/h
17.07.2017 16:00 26,9 C 46 % 1018,8 hPa 0,0 l/m 1,5 km/h N 14,2 C 26,9 C 10,5 km/h
17.07.2017 17:00 26,8 C 45 % 1018,4 hPa 0,0 l/m 0,9 km/h N 13,9 C 26,8 C 7,2 km/h
17.07.2017 18:00 26,8 C 46 % 1018,1 hPa 0,0 l/m 0,0 km/h N 14,2 C 26,8 C 0,4 km/h
17.07.2017 19:00 27,4 C 45 % 1018,0 hPa 0,0 l/m 0,0 km/h N 14,4 C 27,4 C 1,2 km/h
17.07.2017 20:00 26,8 C 46 % 1018,0 hPa 0,0 l/m 0,0 km/h N 14,2 C 26,8 C 0,4 km/h
17.07.2017 21:00 23,1 C 58 % 1018,4 hPa 0,0 l/m 0,0 km/h N 14,3 C 23,1 C 0,4 km/h
17.07.2017 22:00 20,5 C 66 % 1018,8 hPa 0,0 l/m 0,0 km/h N 14,0 C 20,5 C 0,0 km/h
17.07.2017 23:00 19,1 C 71 % 1018,8 hPa 0,0 l/m 0,0 km/h N 13,7 C 19,1 C 0,0 km/h
18.07.2017 00:00 18,6 C 73 % 1019,0 hPa 0,0 l/m 0,2 km/h N 13,7 C 18,6 C 3,2 km/h
18.07.2017 01:00 17,8 C 75 % 1019,0 hPa 0,0 l/m 0,0 km/h N 13,2 C 17,8 C 0,0 km/h
18.07.2017 02:00 16,9 C 77 % 1019,1 hPa 0,0 l/m 0,0 km/h N 12,8 C 16,9 C 0,8 km/h
18.07.2017 03:00 16,3 C 78 % 1019,1 hPa 0,0 l/m 0,0 km/h N 12,4 C 16,3 C 0,8 km/h
18.07.2017 04:00 15,6 C 80 % 1019,0 hPa 0,0 l/m 0,0 km/h N 12,1 C 15,6 C 0,4 km/h
18.07.2017 05:00 15,1 C 80 % 1019,1 hPa 0,0 l/m 0,0 km/h N 11,7 C 15,1 C 0,4 km/h
18.07.2017 06:00 15,5 C 81 % 1019,3 hPa 0,0 l/m 0,0 km/h N 12,3 C 15,5 C 1,2 km/h
18.07.2017 07:00 17,1 C 81 % 1019,3 hPa 0,0 l/m 0,0 km/h N 13,7 C 17,1 C 0,0 km/h
18.07.2017 08:00 19,5 C 76 % 1019,1 hPa 0,0 l/m 0,0 km/h N 15,1 C 19,5 C 0,8 km/h
18.07.2017 09:00 24,1 C 63 % 1018,8 hPa 0,0 l/m 0,1 km/h N 16,5 C 24,1 C 2,0 km/h
18.07.2017 10:00 26,2 C 58 % 1018,7 hPa 0,0 l/m 0,5 km/h N 17,3 C 26,2 C 6,8 km/h
18.07.2017 11:00 28,1 C 51 % 1018,3 hPa 0,0 l/m 0,7 km/h N 16,9 C 28,1 C 6,0 km/h
18.07.2017 12:00 29,8 C 46 % 1017,7 hPa 0,0 l/m 0,9 km/h N 16,9 C 29,8 C 6,8 km/h
18.07.2017 13:00 30,6 C 43 % 1017,2 hPa 0,0 l/m 1,4 km/h N 16,4 C 30,6 C 9,7 km/h
18.07.2017 14:00 31,3 C 40 % 1016,8 hPa 0,0 l/m 1,4 km/h N 16,2 C 31,3 C 9,3 km/h
18.07.2017 15:00 30,0 C 39 % 1016,5 hPa 0,0 l/m 2,1 km/h N 14,6 C 30,0 C 10,9 km/h
18.07.2017 16:00 29,6 C 39 % 1016,0 hPa 0,0 l/m 1,8 km/h N 14,2 C 29,6 C 9,3 km/h
18.07.2017 17:00 29,3 C 38 % 1015,6 hPa 0,0 l/m 1,8 km/h N 13,6 C 29,3 C 10,1 km/h
18.07.2017 18:00 29,8 C 37 % 1015,1 hPa 0,0 l/m 2,3 km/h N 13,5 C 29,8 C 10,9 km/h
18.07.2017 19:00 29,6 C 38 % 1014,8 hPa 0,0 l/m 2,0 km/h N 13,7 C 29,6 C 9,7 km/h
18.07.2017 20:00 28,2 C 41 % 1014,9 hPa 0,0 l/m 0,6 km/h N 13,7 C 28,2 C 5,6 km/h
18.07.2017 21:00 25,7 C 47 % 1015,2 hPa 0,0 l/m 0,0 km/h N 13,6 C 25,7 C 1,2 km/h
18.07.2017 22:00 22,8 C 56 % 1015,4 hPa 0,0 l/m 0,0 km/h N 13,6 C 22,8 C 0,4 km/h
18.07.2017 23:00 20,6 C 64 % 1015,3 hPa 0,0 l/m 0,0 km/h N 13,6 C 20,6 C 0,0 km/h
19.07.2017 00:00 19,5 C 66 % 1015,3 hPa 0,0 l/m 0,0 km/h N 13,0 C 19,5 C 0,0 km/h
19.07.2017 01:00 18,6 C 70 % 1015,0 hPa 0,0 l/m 0,0 km/h N 13,0 C 18,6 C 0,0 km/h
19.07.2017 02:00 17,6 C 74 % 1014,7 hPa 0,0 l/m 0,0 km/h N 12,9 C 17,6 C 0,0 km/h
19.07.2017 03:00 16,9 C 77 % 1014,4 hPa 0,0 l/m 0,0 km/h N 12,7 C 16,9 C 0,4 km/h
19.07.2017 04:00 16,3 C 78 % 1014,2 hPa 0,0 l/m 0,0 km/h N 12,4 C 16,3 C 0,0 km/h
19.07.2017 05:00 16,3 C 78 % 1014,1 hPa 0,0 l/m 0,0 km/h N 12,5 C 16,3 C 0,0 km/h
19.07.2017 06:00 16,5 C 79 % 1014,3 hPa 0,0 l/m 0,0 km/h N 12,8 C 16,5 C 0,0 km/h
19.07.2017 07:00 18,6 C 78 % 1014,4 hPa 0,0 l/m 0,0 km/h N 14,7 C 18,6 C 0,4 km/h
19.07.2017 08:00 21,0 C 71 % 1014,4 hPa 0,0 l/m 0,0 km/h N 15,6 C 21,0 C 1,2 km/h
19.07.2017 09:00 23,3 C 62 % 1014,3 hPa 0,0 l/m 0,0 km/h N 15,5 C 23,3 C 1,2 km/h
19.07.2017 10:00 26,2 C 54 % 1014,4 hPa 0,0 l/m 0,1 km/h N 16,0 C 26,2 C 2,4 km/h
19.07.2017 11:00 29,3 C 48 % 1014,0 hPa 0,0 l/m 0,5 km/h N 17,2 C 29,3 C 5,2 km/h
19.07.2017 12:00 29,6 C 49 % 1013,4 hPa 0,0 l/m 0,4 km/h N 17,6 C 29,6 C 5,2 km/h
19.07.2017 13:00 30,8 C 43 % 1012,8 hPa 0,0 l/m 1,0 km/h N 16,8 C 30,8 C 6,4 km/h
19.07.2017 14:00 32,2 C 40 % 1012,1 hPa 0,0 l/m 0,7 km/h N 17,0 C 32,2 C 6,8 km/h
19.07.2017 15:00 31,3 C 41 % 1012,1 hPa 0,0 l/m 0,6 km/h N 16,4 C 31,3 C 5,6 km/h
19.07.2017 16:00 27,7 C 55 % 1013,2 hPa 0,3 l/m 2,8 km/h N 17,6 C 27,7 C 14,1 km/h
19.07.2017 17:00 21,5 C 75 % 1012,9 hPa 0,5 l/m 0,8 km/h N 16,8 C 21,5 C 5,6 km/h
19.07.2017 18:00 20,2 C 78 % 1012,1 hPa 0,0 l/m 0,1 km/h N 16,2 C 20,2 C 3,2 km/h
19.07.2017 19:00 20,6 C 77 % 1012,4 hPa 0,0 l/m 1,6 km/h N 16,4 C 20,6 C 8,4 km/h
19.07.2017 20:00 20,8 C 76 % 1011,9 hPa 0,0 l/m 1,1 km/h N 16,3 C 20,8 C 5,6 km/h
19.07.2017 21:00 19,7 C 78 % 1011,9 hPa 0,0 l/m 0,1 km/h N 15,7 C 19,7 C 1,6 km/h
19.07.2017 22:00 18,5 C 79 % 1011,8 hPa 0,0 l/m 0,2 km/h N 14,8 C 18,5 C 3,2 km/h
19.07.2017 23:00 17,7 C 80 % 1011,4 hPa 0,0 l/m 0,0 km/h N 14,2 C 17,7 C 0,0 km/h
20.07.2017 00:00 17,0 C 81 % 1011,3 hPa 0,0 l/m 0,1 km/h N 13,7 C 17,0 C 2,8 km/h
20.07.2017 01:00 16,2 C 81 % 1011,2 hPa 0,0 l/m 0,0 km/h N 12,9 C 16,2 C 0,8 km/h
20.07.2017 02:00 15,6 C 81 % 1010,7 hPa 0,0 l/m 0,0 km/h N 12,4 C 15,6 C 0,4 km/h
20.07.2017 03:00 15,4 C 81 % 1010,4 hPa 0,0 l/m 0,0 km/h N 12,1 C 15,4 C 0,8 km/h
20.07.2017 04:00 15,0 C 81 % 1010,7 hPa 0,0 l/m 0,0 km/h N 11,8 C 15,0 C 0,0 km/h
20.07.2017 05:00 14,9 C 82 % 1011,0 hPa 0,0 l/m 0,0 km/h N 11,8 C 14,9 C 0,8 km/h
20.07.2017 06:00 14,9 C 82 % 1011,4 hPa 0,0 l/m 0,1 km/h N 11,9 C 14,9 C 2,4 km/h
20.07.2017 07:00 16,3 C 82 % 1011,7 hPa 0,0 l/m 0,1 km/h N 13,1 C 16,3 C 1,6 km/h
20.07.2017 08:00 19,3 C 80 % 1011,4 hPa 0,0 l/m 0,0 km/h N 15,8 C 19,3 C 1,2 km/h
20.07.2017 09:00 24,1 C 69 % 1011,2 hPa 0,0 l/m 0,2 km/h N 18,0 C 24,1 C 3,2 km/h
20.07.2017 10:00 27,6 C 61 % 1010,6 hPa 0,0 l/m 0,2 km/h N 19,3 C 27,6 C 2,8 km/h
20.07.2017 11:00 29,6 C 53 % 1010,1 hPa 0,0 l/m 0,3 km/h N 19,0 C 29,6 C 2,8 km/h
20.07.2017 12:00 30,7 C 49 % 1009,7 hPa 0,0 l/m 1,1 km/h N 18,8 C 30,7 C 8,9 km/h
20.07.2017 13:00 31,3 C 49 % 1009,1 hPa 0,0 l/m 1,4 km/h N 19,1 C 31,3 C 8,9 km/h
20.07.2017 14:00 31,9 C 46 % 1008,6 hPa 0,0 l/m 1,3 km/h N 18,7 C 31,9 C 9,3 km/h
20.07.2017 15:00 31,8 C 42 % 1008,3 hPa 0,0 l/m 1,7 km/h N 17,2 C 31,8 C 10,1 km/h
20.07.2017 16:00 31,7 C 41 % 1007,8 hPa 0,0 l/m 0,4 km/h N 16,8 C 31,7 C 6,0 km/h
20.07.2017 17:00 32,2 C 40 % 1007,4 hPa 0,0 l/m 0,2 km/h N 16,6 C 32,2 C 3,6 km/h
20.07.2017 18:00 32,2 C 42 % 1007,1 hPa 0,0 l/m 1,1 km/h N 17,7 C 32,2 C 7,6 km/h
20.07.2017 19:00 31,3 C 43 % 1007,3 hPa 0,0 l/m 0,4 km/h N 17,1 C 31,3 C 4,4 km/h
20.07.2017 20:00 29,5 C 49 % 1007,2 hPa 0,0 l/m 0,0 km/h N 17,6 C 29,5 C 1,2 km/h
20.07.2017 21:00 25,2 C 60 % 1009,4 hPa 0,0 l/m 5,7 km/h N 16,8 C 25,1 C 32,2 km/h
20.07.2017 22:00 22,7 C 66 % 1010,1 hPa 0,0 l/m 8,5 km/h N 16,0 C 22,0 C 31,0 km/h
20.07.2017 23:00 20,9 C 74 % 1011,1 hPa 0,3 l/m 9,8 km/h N 16,1 C 19,7 C 34,6 km/h
21.07.2017 00:00 19,6 C 80 % 1012,5 hPa 0,8 l/m 1,5 km/h N 15,9 C 19,6 C 13,3 km/h
21.07.2017 01:00 19,0 C 81 % 1012,9 hPa 1,8 l/m 0,4 km/h N 15,6 C 19,0 C 4,8 km/h
21.07.2017 02:00 18,5 C 81 % 1012,8 hPa 2,3 l/m 0,9 km/h N 15,2 C 18,5 C 4,4 km/h
21.07.2017 03:00 18,3 C 81 % 1012,2 hPa 1,8 l/m 4,8 km/h N 15,0 C 18,2 C 13,3 km/h
21.07.2017 04:00 18,3 C 81 % 1012,1 hPa 1,3 l/m 0,3 km/h N 15,0 C 18,3 C 4,8 km/h
21.07.2017 05:00 18,2 C 81 % 1012,5 hPa 0,8 l/m 1,2 km/h N 14,9 C 18,2 C 8,9 km/h
21.07.2017 06:00 18,7 C 81 % 1012,9 hPa 0,0 l/m 2,3 km/h N 15,3 C 18,7 C 12,5 km/h
21.07.2017 07:00 20,0 C 78 % 1013,1 hPa 0,0 l/m 8,0 km/h N 15,9 C 19,3 C 22,1 km/h
21.07.2017 08:00 21,4 C 75 % 1013,7 hPa 0,0 l/m 7,2 km/h N 16,6 C 21,0 C 22,1 km/h
21.07.2017 09:00 23,0 C 71 % 1014,2 hPa 0,0 l/m 7,4 km/h N 17,3 C 22,6 C 22,1 km/h
21.07.2017 10:00 23,8 C 69 % 1014,3 hPa 0,0 l/m 5,7 km/h N 17,7 C 23,7 C 18,1 km/h
21.07.2017 11:00 24,6 C 67 % 1014,3 hPa 0,0 l/m 6,2 km/h N 18,0 C 24,5 C 17,3 km/h
21.07.2017 12:00 25,7 C 63 % 1014,1 hPa 0,0 l/m 3,5 km/h N 18,0 C 25,7 C 14,1 km/h
21.07.2017 13:00 26,4 C 61 % 1013,8 hPa 0,0 l/m 3,1 km/h N 18,1 C 26,4 C 12,9 km/h
21.07.2017 14:00 27,6 C 57 % 1013,2 hPa 0,0 l/m 2,8 km/h N 18,4 C 27,6 C 13,7 km/h
21.07.2017 15:00 28,2 C 52 % 1012,7 hPa 0,0 l/m 2,0 km/h N 17,5 C 28,2 C 9,6 km/h
21.07.2017 16:00 28,2 C 50 % 1012,2 hPa 0,0 l/m 0,4 km/h N 16,8 C 28,2 C 5,6 km/h
21.07.2017 17:00 28,5 C 50 % 1011,7 hPa 0,0 l/m 0,3 km/h N 17,1 C 28,5 C 3,2 km/h
21.07.2017 18:00 29,7 C 49 % 1011,4 hPa 0,0 l/m 0,1 km/h N 17,7 C 29,7 C 4,0 km/h
21.07.2017 19:00 29,7 C 48 % 1011,1 hPa 0,0 l/m 0,2 km/h N 17,6 C 29,7 C 3,2 km/h
21.07.2017 20:00 27,8 C 53 % 1011,4 hPa 0,0 l/m 0,0 km/h N 17,3 C 27,8 C 1,2 km/h
21.07.2017 21:00 24,6 C 64 % 1011,8 hPa 0,0 l/m 0,0 km/h N 17,4 C 24,6 C 0,0 km/h
21.07.2017 22:00 22,3 C 71 % 1012,0 hPa 0,0 l/m 0,0 km/h N 16,9 C 22,3 C 0,0 km/h
21.07.2017 23:00 21,0 C 76 % 1012,0 hPa 0,0 l/m 0,0 km/h N 16,7 C 21,0 C 0,0 km/h
22.07.2017 00:00 20,2 C 78 % 1011,9 hPa 0,0 l/m 0,0 km/h N 16,2 C 20,2 C 0,4 km/h
22.07.2017 01:00 19,4 C 80 % 1011,7 hPa 0,0 l/m 0,0 km/h N 15,8 C 19,4 C 0,0 km/h
22.07.2017 02:00 18,7 C 80 % 1011,6 hPa 0,0 l/m 0,0 km/h N 15,2 C 18,7 C 0,0 km/h
22.07.2017 03:00 18,2 C 81 % 1011,4 hPa 0,0 l/m 0,0 km/h N 14,9 C 18,2 C 0,0 km/h
22.07.2017 04:00 17,8 C 81 % 1011,2 hPa 0,0 l/m 0,0 km/h N 14,5 C 17,8 C 0,0 km/h
22.07.2017 05:00 17,8 C 81 % 1011,3 hPa 0,0 l/m 0,0 km/h N 14,5 C 17,8 C 0,4 km/h
22.07.2017 06:00 18,1 C 81 % 1011,7 hPa 0,0 l/m 0,0 km/h N 14,9 C 18,1 C 0,4 km/h
22.07.2017 07:00 18,9 C 81 % 1012,0 hPa 0,0 l/m 0,0 km/h N 15,5 C 18,9 C 1,2 km/h
22.07.2017 08:00 20,8 C 78 % 1012,3 hPa 0,0 l/m 0,1 km/h N 16,7 C 20,8 C 2,4 km/h
22.07.2017 09:00 23,7 C 69 % 1012,5 hPa 0,0 l/m 0,4 km/h N 17,6 C 23,7 C 5,2 km/h
22.07.2017 10:00 25,9 C 64 % 1012,4 hPa 0,0 l/m 0,3 km/h N 18,6 C 25,9 C 5,6 km/h
22.07.2017 11:00 27,3 C 61 % 1012,4 hPa 0,0 l/m 1,8 km/h N 19,1 C 27,3 C 9,6 km/h
22.07.2017 12:00 28,0 C 58 % 1012,3 hPa 0,0 l/m 1,5 km/h N 19,0 C 28,0 C 8,5 km/h
22.07.2017 13:00 28,5 C 57 % 1012,0 hPa 0,0 l/m 1,8 km/h N 19,0 C 28,5 C 10,9 km/h
22.07.2017 14:00 29,4 C 56 % 1011,7 hPa 0,0 l/m 0,7 km/h N 19,5 C 29,4 C 6,4 km/h
22.07.2017 15:00 29,8 C 53 % 1011,8 hPa 0,0 l/m 1,1 km/h N 19,1 C 29,8 C 5,6 km/h
22.07.2017 16:00 29,9 C 57 % 1011,6 hPa 0,0 l/m 0,2 km/h N 20,3 C 29,9 C 3,2 km/h
22.07.2017 17:00 29,4 C 54 % 1011,4 hPa 0,0 l/m 1,0 km/h N 19,1 C 29,4 C 12,5 km/h
22.07.2017 18:00 30,3 C 49 % 1011,3 hPa 0,0 l/m 0,2 km/h N 18,4 C 30,3 C 3,2 km/h
22.07.2017 19:00 30,7 C 46 % 1011,7 hPa 0,0 l/m 0,2 km/h N 17,6 C 30,7 C 4,0 km/h
22.07.2017 20:00 28,0 C 51 % 1012,0 hPa 0,0 l/m 0,4 km/h N 16,9 C 28,0 C 4,0 km/h
22.07.2017 21:00 25,6 C 58 % 1012,5 hPa 0,0 l/m 0,0 km/h N 16,7 C 25,6 C 0,0 km/h
22.07.2017 22:00 23,5 C 64 % 1012,8 hPa 0,0 l/m 0,0 km/h N 16,3 C 23,5 C 0,0 km/h
22.07.2017 23:00 22,7 C 70 % 1012,6 hPa 0,0 l/m 0,0 km/h N 16,8 C 22,7 C 0,4 km/h
23.07.2017 00:00 22,3 C 71 % 1012,4 hPa 0,0 l/m 0,0 km/h N 16,9 C 22,3 C 0,4 km/h
23.07.2017 01:00 21,8 C 75 % 1012,7 hPa 0,0 l/m 0,0 km/h N 17,1 C 21,8 C 1,2 km/h
23.07.2017 02:00 21,6 C 74 % 1012,2 hPa 0,0 l/m 0,1 km/h N 16,7 C 21,6 C 2,0 km/h
23.07.2017 03:00 21,1 C 76 % 1012,0 hPa 0,0 l/m 0,3 km/h N 16,6 C 21,1 C 2,0 km/h
23.07.2017 04:00 20,5 C 77 % 1012,1 hPa 0,0 l/m 0,0 km/h N 16,3 C 20,5 C 0,4 km/h
23.07.2017 05:00 19,8 C 79 % 1012,2 hPa 0,0 l/m 0,0 km/h N 16,0 C 19,8 C 0,4 km/h
23.07.2017 06:00 19,9 C 80 % 1012,0 hPa 0,0 l/m 0,0 km/h N 16,3 C 19,9 C 1,2 km/h
23.07.2017 07:00 20,9 C 79 % 1012,5 hPa 0,0 l/m 0,1 km/h N 17,1 C 20,9 C 2,0 km/h
23.07.2017 08:00 22,3 C 75 % 1013,0 hPa 0,0 l/m 0,8 km/h N 17,7 C 22,3 C 7,6 km/h
23.07.2017 09:00 21,2 C 78 % 1013,8 hPa 0,3 l/m 3,3 km/h N 17,2 C 21,1 C 15,7 km/h
23.07.2017 10:00 22,1 C 76 % 1013,6 hPa 0,0 l/m 4,9 km/h N 17,6 C 21,9 C 20,9 km/h
23.07.2017 11:00 24,0 C 69 % 1013,6 hPa 0,0 l/m 10,7 km/h N 18,0 C 22,9 C 26,1 km/h
23.07.2017 12:00 24,5 C 67 % 1013,7 hPa 0,0 l/m 10,4 km/h N 18,0 C 23,6 C 29,0 km/h
23.07.2017 13:00 25,8 C 64 % 1013,9 hPa 0,0 l/m 6,8 km/h N 18,3 C 25,6 C 21,7 km/h
23.07.2017 14:00 26,8 C 58 % 1013,6 hPa 0,0 l/m 7,9 km/h N 17,9 C 26,5 C 22,1 km/h
23.07.2017 15:00 27,1 C 59 % 1013,2 hPa 0,0 l/m 5,8 km/h N 18,4 C 27,1 C 18,9 km/h
23.07.2017 16:00 27,2 C 54 % 1012,6 hPa 0,0 l/m 7,0 km/h N 17,1 C 27,0 C 18,9 km/h
23.07.2017 17:00 27,4 C 54 % 1012,2 hPa 0,0 l/m 4,0 km/h N 17,3 C 27,4 C 16,5 km/h
23.07.2017 18:00 28,0 C 54 % 1012,2 hPa 0,0 l/m 1,5 km/h N 17,8 C 28,0 C 9,3 km/h
23.07.2017 19:00 27,4 C 52 % 1012,3 hPa 0,0 l/m 4,0 km/h N 16,6 C 27,4 C 14,9 km/h
23.07.2017 20:00 24,9 C 59 % 1012,4 hPa 0,0 l/m 1,2 km/h N 16,1 C 24,9 C 8,4 km/h
23.07.2017 21:00 23,5 C 64 % 1012,6 hPa 0,0 l/m 0,0 km/h N 16,1 C 23,5 C 0,0 km/h
23.07.2017 22:00 22,3 C 70 % 1012,7 hPa 0,0 l/m 0,1 km/h N 16,5 C 22,3 C 2,8 km/h
23.07.2017 23:00 22,9 C 70 % 1013,4 hPa 0,0 l/m 0,6 km/h N 17,0 C 22,9 C 8,1 km/h
Min-Datum _ 17.07.17 18.07.17 20.07.17 - 17.07.17 - 17.07.17 17.07.17 17.07.17
_ Min-Zeit 04:30 18:00 18:15 - 00:00 - 04:15 04:30 00:00
Minimum _ 13,4 C 37 % 1007,0 hPa - 0,0 km/h - 9,5 C 13,4 C 0,0 km/h
Max-Datum _ 19.07.17 20.07.17 17.07.17 21.07.17 23.07.17 - 22.07.17 19.07.17 20.07.17
_ Max-Zeit 14:45 04:15 00:00 02:30 11:45 - 16:00 14:45 22:45
Maximum _ 33,1 C 82 % 1021,6 hPa 2,3 l/m 13,1 km/h
N
- 20,6 C 33,1 C 41,8 km/h
N
Durchschnitt _ 23,2 C 64 % 1014,0 hPa #10,1 l/m 1,3 km/h N 15,5 C 23,2 C 6,1 km/h